Time,TemperatureF,DewpointF,PressureIn,WindDirection,WindDirectionDegrees,WindSpeedMPH,WindSpeedGustMPH,Humidity,HourlyPrecipIn,Conditions,Clouds,dailyrainin,SoftwareType,DateUTC
2013-02-15 00:01:00,27.0,24.0,-100.00,WSW,245,7.0,11.0,88,-99.99,,,0.00,,2013-02-15 07:01:00,
2013-02-15 00:11:00,27.0,24.0,-100.00,West,265,9.0,16.0,88,-99.99,,,0.00,,2013-02-15 07:11:00,
2013-02-15 00:21:00,27.0,24.0,-100.00,West,265,9.0,16.0,88,-99.99,,,0.00,,2013-02-15 07:21:00,
2013-02-15 00:31:00,27.0,24.0,-100.00,West,265,9.0,16.0,88,-99.99,,,0.00,,2013-02-15 07:31:00,
2013-02-15 00:41:00,27.0,24.0,-100.00,West,265,9.0,16.0,88,-99.99,,,0.00,,2013-02-15 07:41:00,
2013-02-15 00:52:00,27.0,23.0,-100.00,WSW,250,8.0,16.0,87,-99.99,,,0.00,,2013-02-15 07:52:00,
2013-02-15 01:01:00,27.0,23.0,-100.00,WSW,250,8.0,16.0,87,-99.99,,,0.00,,2013-02-15 08:01:00,
2013-02-15 01:11:00,27.0,23.0,-100.00,West,280,12.0,17.0,85,-99.99,,,0.00,,2013-02-15 08:11:00,
2013-02-15 01:21:00,27.0,23.0,-100.00,West,280,12.0,17.0,85,-99.99,,,0.00,,2013-02-15 08:21:00,
2013-02-15 01:31:00,27.0,23.0,-100.00,West,280,12.0,17.0,85,-99.99,,,0.00,,2013-02-15 08:31:00,
2013-02-15 01:41:00,27.0,23.0,-100.00,West,280,12.0,17.0,85,-99.99,,,0.00,,2013-02-15 08:41:00,
2013-02-15 01:52:00,27.0,23.0,-100.00,West,265,11.0,16.0,84,-99.99,,,0.00,,2013-02-15 08:52:00,
2013-02-15 02:01:00,27.0,23.0,-100.00,West,265,11.0,16.0,84,-99.99,,,0.00,,2013-02-15 09:01:00,
2013-02-15 02:12:00,27.0,23.0,-100.00,West,260,9.0,14.0,83,-99.99,,,0.00,,2013-02-15 09:12:00,
2013-02-15 02:21:00,27.0,23.0,-100.00,West,260,9.0,14.0,83,-99.99,,,0.00,,2013-02-15 09:21:00,
2013-02-15 02:31:00,27.0,23.0,-100.00,West,260,9.0,14.0,83,-99.99,,,0.00,,2013-02-15 09:31:00,
2013-02-15 02:41:00,27.0,23.0,-100.00,West,260,9.0,14.0,83,-99.99,,,0.00,,2013-02-15 09:41:00,
2013-02-15 02:51:00,27.0,22.0,-100.00,West,260,8.0,13.0,81,-99.99,,,-99.99,,2013-02-15 09:51:00,
2013-02-15 03:01:00,27.0,22.0,-100.00,West,260,8.0,13.0,81,-99.99,,,-99.99,,2013-02-15 10:01:00,
2013-02-15 03:11:00,27.0,22.0,-100.00,West,260,4.0,6.0,81,-99.99,,,-99.99,,2013-02-15 10:11:00,
2013-02-15 03:21:00,27.0,22.0,-100.00,West,260,4.0,6.0,81,-99.99,,,-99.99,,2013-02-15 10:21:00,
2013-02-15 03:31:00,27.0,22.0,-100.00,West,260,4.0,6.0,81,-99.99,,,-99.99,,2013-02-15 10:31:00,
2013-02-15 03:41:00,27.0,22.0,-100.00,West,260,4.0,6.0,81,-99.99,,,-99.99,,2013-02-15 10:41:00,
2013-02-15 03:51:00,28.0,23.0,-100.00,WSW,245,3.0,8.0,81,-99.99,,,-99.99,,2013-02-15 10:51:00,
2013-02-15 04:01:00,28.0,23.0,-100.00,WSW,245,3.0,8.0,81,-99.99,,,-99.99,,2013-02-15 11:01:00,
2013-02-15 04:11:00,28.0,22.0,-100.00,West,265,3.0,7.0,79,-99.99,,,-99.99,,2013-02-15 11:11:00,
2013-02-15 04:22:00,28.0,22.0,-100.00,West,265,3.0,7.0,79,-99.99,,,-99.99,,2013-02-15 11:22:00,
2013-02-15 04:31:00,28.0,22.0,-100.00,West,265,3.0,7.0,79,-99.99,,,-99.99,,2013-02-15 11:31:00,
2013-02-15 04:42:00,28.0,22.0,-100.00,West,265,3.0,7.0,79,-99.99,,,-99.99,,2013-02-15 11:42:00,
2013-02-15 04:52:00,28.0,22.0,-100.00,WSW,250,4.0,4.0,79,-99.99,,,-99.99,,2013-02-15 11:52:00,
2013-02-15 05:01:00,28.0,22.0,-100.00,WSW,250,4.0,4.0,79,-99.99,,,-99.99,,2013-02-15 12:01:00,
2013-02-15 05:11:00,27.0,23.0,-100.00,WSW,250,6.0,9.0,83,-99.99,,,0.00,,2013-02-15 12:11:00,
2013-02-15 05:21:00,27.0,23.0,-100.00,WSW,250,6.0,9.0,83,-99.99,,,0.00,,2013-02-15 12:21:00,
2013-02-15 05:32:00,27.0,23.0,-100.00,WSW,250,6.0,9.0,83,-99.99,,,0.00,,2013-02-15 12:32:00,
2013-02-15 05:42:00,27.0,23.0,-100.00,WSW,250,6.0,9.0,83,-99.99,,,0.00,,2013-02-15 12:42:00,
2013-02-15 05:52:00,27.0,23.0,-100.00,SW,230,6.0,8.0,86,-99.99,,,0.00,,2013-02-15 12:52:00,
2013-02-15 06:02:00,27.0,23.0,-100.00,SW,230,6.0,8.0,86,-99.99,,,0.00,,2013-02-15 13:02:00,
2013-02-15 06:11:00,27.0,23.0,-100.00,SW,230,6.0,8.0,86,-99.99,,,0.00,,2013-02-15 13:11:00,
2013-02-15 06:51:00,26.0,23.0,-100.00,West,265,1.0,6.0,87,-99.99,,,0.00,,2013-02-15 13:51:00,
2013-02-15 07:01:00,26.0,23.0,-100.00,West,265,1.0,6.0,87,-99.99,,,0.00,,2013-02-15 14:01:00,
2013-02-15 07:11:00,26.0,23.0,-100.00,WSW,245,9.0,13.0,87,-99.99,,,0.00,,2013-02-15 14:11:00,
2013-02-15 07:21:00,26.0,23.0,-100.00,WSW,245,9.0,13.0,87,-99.99,,,0.00,,2013-02-15 14:21:00,
2013-02-15 07:32:00,26.0,23.0,-100.00,WSW,245,9.0,13.0,87,-99.99,,,0.00,,2013-02-15 14:32:00,
2013-02-15 07:41:00,26.0,23.0,-100.00,WSW,245,9.0,13.0,87,-99.99,,,0.00,,2013-02-15 14:41:00,
2013-02-15 09:11:00,28.0,23.0,-100.00,West,260,6.0,9.0,81,-99.99,,,0.00,,2013-02-15 16:11:00,
2013-02-15 09:22:00,28.0,23.0,-100.00,West,260,6.0,9.0,81,-99.99,,,0.00,,2013-02-15 16:22:00,
2013-02-15 09:31:00,28.0,23.0,-100.00,West,260,6.0,9.0,81,-99.99,,,0.00,,2013-02-15 16:31:00,
2013-02-15 09:42:00,28.0,23.0,-100.00,West,260,6.0,9.0,81,-99.99,,,0.00,,2013-02-15 16:42:00,
2013-02-15 09:51:00,30.0,24.0,-100.00,West,260,7.0,9.0,78,-99.99,,,0.00,,2013-02-15 16:51:00,
2013-02-15 10:01:00,30.0,24.0,-100.00,West,260,7.0,9.0,78,-99.99,,,0.00,,2013-02-15 17:01:00,
2013-02-15 10:11:00,31.0,22.0,-100.00,WSW,245,9.0,11.0,69,-99.99,,,0.00,,2013-02-15 17:11:00,
2013-02-15 10:21:00,31.0,22.0,-100.00,WSW,245,9.0,11.0,69,-99.99,,,0.00,,2013-02-15 17:21:00,
2013-02-15 10:32:00,31.0,22.0,-100.00,WSW,245,9.0,11.0,69,-99.99,,,0.00,,2013-02-15 17:32:00,
2013-02-15 10:41:00,31.0,22.0,-100.00,WSW,245,9.0,11.0,69,-99.99,,,0.00,,2013-02-15 17:41:00,
2013-02-15 10:52:00,32.0,22.0,-100.00,WSW,245,11.0,12.0,67,-99.99,,,0.00,,2013-02-15 17:52:00,
2013-02-15 11:01:00,32.0,22.0,-100.00,WSW,245,11.0,12.0,67,-99.99,,,0.00,,2013-02-15 18:01:00,
2013-02-15 11:11:00,34.0,23.0,-100.00,WSW,255,8.0,14.0,63,-99.99,,,0.00,,2013-02-15 18:11:00,
2013-02-15 11:21:00,34.0,23.0,-100.00,WSW,255,8.0,14.0,63,-99.99,,,0.00,,2013-02-15 18:21:00,
2013-02-15 11:31:00,34.0,23.0,-100.00,WSW,255,8.0,14.0,63,-99.99,,,0.00,,2013-02-15 18:31:00,
2013-02-15 11:41:00,34.0,23.0,-100.00,WSW,255,8.0,14.0,63,-99.99,,,0.00,,2013-02-15 18:41:00,
2013-02-15 11:52:00,36.0,23.0,-100.00,WSW,245,8.0,12.0,59,-99.99,,,0.00,,2013-02-15 18:52:00,
2013-02-15 12:01:00,36.0,23.0,-100.00,WSW,245,8.0,12.0,59,-99.99,,,0.00,,2013-02-15 19:01:00,
2013-02-15 12:11:00,38.0,22.0,-100.00,WSW,245,8.0,10.0,52,-99.99,,,0.00,,2013-02-15 19:11:00,
2013-02-15 12:21:00,38.0,22.0,-100.00,WSW,245,8.0,10.0,52,-99.99,,,0.00,,2013-02-15 19:21:00,
2013-02-15 12:32:00,38.0,22.0,-100.00,WSW,245,8.0,10.0,52,-99.99,,,0.00,,2013-02-15 19:32:00,
2013-02-15 12:41:00,38.0,22.0,-100.00,WSW,245,8.0,10.0,52,-99.99,,,0.00,,2013-02-15 19:41:00,
2013-02-15 12:52:00,41.0,21.0,-100.00,WSW,250,0.0,3.0,45,-99.99,,,0.00,,2013-02-15 19:52:00,
2013-02-15 13:01:00,41.0,21.0,-100.00,WSW,250,0.0,3.0,45,-99.99,,,0.00,,2013-02-15 20:01:00,
2013-02-15 13:11:00,41.0,19.0,-100.00,WSW,240,2.0,6.0,41,-99.99,,,0.00,,2013-02-15 20:11:00,
2013-02-15 13:21:00,41.0,19.0,-100.00,WSW,240,2.0,6.0,41,-99.99,,,0.00,,2013-02-15 20:21:00,
2013-02-15 13:32:00,41.0,19.0,-100.00,WSW,240,2.0,6.0,41,-99.99,,,0.00,,2013-02-15 20:32:00,
2013-02-15 13:42:00,41.0,19.0,-100.00,WSW,240,2.0,6.0,41,-99.99,,,0.00,,2013-02-15 20:42:00,
2013-02-15 13:52:00,43.0,19.0,-100.00,West,265,6.0,9.0,38,-99.99,,,0.00,,2013-02-15 20:52:00,
2013-02-15 14:01:00,43.0,19.0,-100.00,West,265,6.0,9.0,38,-99.99,,,0.00,,2013-02-15 21:01:00,
2013-02-15 14:11:00,45.0,21.0,-100.00,West,275,8.0,14.0,38,-99.99,,,0.00,,2013-02-15 21:11:00,
2013-02-15 14:21:00,45.0,21.0,-100.00,West,275,8.0,14.0,38,-99.99,,,0.00,,2013-02-15 21:21:00,
2013-02-15 14:31:00,45.0,21.0,-100.00,West,275,8.0,14.0,38,-99.99,,,0.00,,2013-02-15 21:31:00,
2013-02-15 14:42:00,45.0,21.0,-100.00,West,275,8.0,14.0,38,-99.99,,,0.00,,2013-02-15 21:42:00,
2013-02-15 14:51:00,44.0,19.0,-100.00,West,280,8.0,16.0,36,-99.99,,,0.00,,2013-02-15 21:51:00,
2013-02-15 15:02:00,44.0,19.0,-100.00,West,280,8.0,16.0,36,-99.99,,,0.00,,2013-02-15 22:02:00,
2013-02-15 15:11:00,44.0,18.0,-100.00,West,270,10.0,16.0,34,-99.99,,,0.00,,2013-02-15 22:11:00,
2013-02-15 15:21:00,44.0,18.0,-100.00,West,270,10.0,16.0,34,-99.99,,,0.00,,2013-02-15 22:21:00,
2013-02-15 15:31:00,44.0,18.0,-100.00,West,270,10.0,16.0,34,-99.99,,,0.00,,2013-02-15 22:31:00,
2013-02-15 15:41:00,44.0,18.0,-100.00,West,270,10.0,16.0,34,-99.99,,,0.00,,2013-02-15 22:41:00,
2013-02-15 15:51:00,44.0,18.0,-100.00,West,270,12.0,20.0,34,-99.99,,,0.00,,2013-02-15 22:51:00,
2013-02-15 16:02:00,44.0,18.0,-100.00,West,270,12.0,20.0,34,-99.99,,,0.00,,2013-02-15 23:02:00,
2013-02-15 16:11:00,43.0,17.0,-100.00,West,280,12.0,24.0,34,-99.99,,,0.00,,2013-02-15 23:11:00,
2013-02-15 16:21:00,43.0,17.0,-100.00,West,280,12.0,24.0,34,-99.99,,,0.00,,2013-02-15 23:21:00,
2013-02-15 16:31:00,43.0,17.0,-100.00,West,280,12.0,24.0,34,-99.99,,,0.00,,2013-02-15 23:31:00,
2013-02-15 16:41:00,43.0,17.0,-100.00,West,280,12.0,24.0,34,-99.99,,,0.00,,2013-02-15 23:41:00,
2013-02-15 16:52:00,42.0,17.0,-100.00,West,265,13.0,24.0,36,-99.99,,,0.00,,2013-02-15 23:52:00,
2013-02-15 17:02:00,42.0,17.0,-100.00,West,265,13.0,24.0,36,-99.99,,,0.00,,2013-02-16 00:02:00,
2013-02-15 17:11:00,40.0,18.0,-100.00,West,275,11.0,22.0,40,-99.99,,,0.00,,2013-02-16 00:11:00,
2013-02-15 17:21:00,40.0,18.0,-100.00,West,275,11.0,22.0,40,-99.99,,,0.00,,2013-02-16 00:21:00,
2013-02-15 17:32:00,40.0,18.0,-100.00,West,275,11.0,22.0,40,-99.99,,,0.00,,2013-02-16 00:32:00,
2013-02-15 17:41:00,40.0,18.0,-100.00,West,275,11.0,22.0,40,-99.99,,,0.00,,2013-02-16 00:41:00,
2013-02-15 17:51:00,37.0,17.0,-100.00,West,265,12.0,20.0,44,-99.99,,,0.00,,2013-02-16 00:51:00,
2013-02-15 18:02:00,37.0,17.0,-100.00,West,265,12.0,20.0,44,-99.99,,,0.00,,2013-02-16 01:02:00,
2013-02-15 18:11:00,35.0,18.0,-100.00,WSW,255,13.0,20.0,48,-99.99,,,0.00,,2013-02-16 01:11:00,
2013-02-15 18:21:00,35.0,18.0,-100.00,WSW,255,13.0,20.0,48,-99.99,,,0.00,,2013-02-16 01:21:00,
2013-02-15 18:31:00,35.0,18.0,-100.00,WSW,255,13.0,20.0,48,-99.99,,,0.00,,2013-02-16 01:31:00,
2013-02-15 18:41:00,35.0,18.0,-100.00,WSW,255,13.0,20.0,48,-99.99,,,0.00,,2013-02-16 01:41:00,
2013-02-15 18:51:00,34.0,18.0,-100.00,West,260,15.0,21.0,50,-99.99,,,0.00,,2013-02-16 01:51:00,
2013-02-15 19:01:00,34.0,18.0,-100.00,West,260,15.0,21.0,50,-99.99,,,0.00,,2013-02-16 02:01:00,
2013-02-15 19:11:00,34.0,18.0,-100.00,West,280,14.0,26.0,51,-99.99,,,0.00,,2013-02-16 02:11:00,
2013-02-15 19:21:00,34.0,18.0,-100.00,West,280,14.0,26.0,51,-99.99,,,0.00,,2013-02-16 02:21:00,
2013-02-15 19:31:00,34.0,18.0,-100.00,West,280,14.0,26.0,51,-99.99,,,0.00,,2013-02-16 02:31:00,
2013-02-15 19:42:00,34.0,18.0,-100.00,West,280,14.0,26.0,51,-99.99,,,0.00,,2013-02-16 02:42:00,
2013-02-15 20:11:00,33.0,17.0,-100.00,West,265,14.0,25.0,52,-99.99,,,0.00,,2013-02-16 03:11:00,
2013-02-15 20:21:00,33.0,17.0,-100.00,West,265,14.0,25.0,52,-99.99,,,0.00,,2013-02-16 03:21:00,
2013-02-15 20:31:00,33.0,17.0,-100.00,West,265,14.0,25.0,52,-99.99,,,0.00,,2013-02-16 03:31:00,
2013-02-15 20:41:00,33.0,17.0,-100.00,West,265,14.0,25.0,52,-99.99,,,0.00,,2013-02-16 03:41:00,
2013-02-15 20:52:00,32.0,17.0,-100.00,West,270,14.0,24.0,53,-99.99,,,0.00,,2013-02-16 03:52:00,
2013-02-15 21:01:00,32.0,17.0,-100.00,West,270,14.0,24.0,53,-99.99,,,0.00,,2013-02-16 04:01:00,
2013-02-15 21:11:00,32.0,17.0,-100.00,WNW,290,11.0,17.0,53,-99.99,,,0.00,,2013-02-16 04:11:00,
2013-02-15 21:21:00,32.0,17.0,-100.00,WNW,290,11.0,17.0,53,-99.99,,,0.00,,2013-02-16 04:21:00,
2013-02-15 21:31:00,32.0,17.0,-100.00,WNW,290,11.0,17.0,53,-99.99,,,0.00,,2013-02-16 04:31:00,
2013-02-15 21:41:00,32.0,17.0,-100.00,WNW,290,11.0,17.0,53,-99.99,,,0.00,,2013-02-16 04:41:00,
2013-02-15 21:51:00,32.0,17.0,-100.00,West,275,14.0,21.0,54,-99.99,,,0.00,,2013-02-16 04:51:00,
2013-02-15 22:01:00,32.0,17.0,-100.00,West,275,14.0,21.0,54,-99.99,,,0.00,,2013-02-16 05:01:00,
2013-02-15 22:11:00,32.0,17.0,-100.00,West,265,14.0,22.0,54,-99.99,,,0.00,,2013-02-16 05:11:00,
2013-02-15 22:21:00,32.0,17.0,-100.00,West,265,14.0,22.0,54,-99.99,,,0.00,,2013-02-16 05:21:00,
2013-02-15 22:31:00,32.0,17.0,-100.00,West,265,14.0,22.0,54,-99.99,,,0.00,,2013-02-16 05:31:00,
2013-02-15 22:42:00,32.0,17.0,-100.00,West,265,14.0,22.0,54,-99.99,,,0.00,,2013-02-16 05:42:00,
2013-02-15 22:52:00,32.0,17.0,-100.00,West,280,16.0,23.0,55,-99.99,,,0.00,,2013-02-16 05:52:00,
2013-02-15 23:01:00,32.0,17.0,-100.00,West,280,16.0,23.0,55,-99.99,,,0.00,,2013-02-16 06:01:00,
2013-02-15 23:11:00,31.0,17.0,-100.00,West,275,16.0,20.0,56,-99.99,,,0.00,,2013-02-16 06:11:00,
2013-02-15 23:21:00,31.0,17.0,-100.00,West,275,16.0,20.0,56,-99.99,,,0.00,,2013-02-16 06:21:00,
2013-02-15 23:32:00,31.0,17.0,-100.00,West,275,16.0,20.0,56,-99.99,,,0.00,,2013-02-16 06:32:00,
2013-02-15 23:41:00,31.0,17.0,-100.00,West,275,16.0,20.0,56,-99.99,,,0.00,,2013-02-16 06:41:00,
2013-02-15 23:51:00,31.0,17.0,-100.00,West,270,14.0,18.0,56,-99.99,,,0.00,,2013-02-16 06:51:00,